KWYS/WYS METAR and TAF weather

Enter ICAO airport designator
Station Type Date Time Source
KWYS METAR 2019/04/18 15:10 UTC NOAA

KWYS 181510Z AUTO 00000KT 10SM CLR M01/M05 A3035 RMK AO2


Station Type Date Time Source
KWYS Decoded METAR 2019/04/18 15:10 UTC NOAA

West Yellowstone, MT, United States (KWYS) 44-41N 111-07W
Apr 18, 2019 - 11:10 AM EDT / 2019.04.18 1510 UTC
Wind: Calm:0
Visibility: 10 mile(s):0
Sky conditions: clear
Temperature: 30 F (-1 C)
Dew Point: 23 F (-5 C)
Relative Humidity: 74%
Pressure (altimeter): 30.35 in. Hg (1027 hPa)
ob: KWYS 181510Z AUTO 00000KT 10SM CLR M01/M05 A3035 RMK AO2
cycle: 15

Station Type Date Time Source
KWYS TAF UTC NOAA

Error!

Example: see airport list